Time;durP1;ratioP1;P1;durP2;ratioP2;P2;SDS_P1;SDS_P2;PMS_P1;PMS_P2;Temp;Humidity;BMP_temperature;BMP_pressure;BME280_temperature;BME280_humidity;BME280_pressure;Samples;Min_cycle;Max_cycle;Signal;HPM_P1;HPM_P2
2023/05/27 00:01:13;;;;;;;;;;;;;;;27.73;39.06;94680.50;5087397;28;7139;-64
2023/05/27 00:03:41;;;;;;;;;;;;;;;27.72;38.94;94657.66;5074413;28;9013;-64
2023/05/27 00:06:07;;;;;;;;;;;;;;;27.72;39.06;94674.22;5053040;28;7654;-64
2023/05/27 00:08:33;;;;;;;;;;;;;;;27.72;39.19;94665.94;5052311;28;7011;-65
2023/05/27 00:11:27;;;;;;;;;;;;;;;27.71;39.18;94669.22;5053694;28;7097;-64
2023/05/27 00:13:53;;;;;;;;;;;;;;;27.68;39.11;94653.66;5050664;28;8832;-64
2023/05/27 00:16:19;;;;;;;;;;;;;;;27.70;38.98;94659.44;5050495;28;7010;-65
2023/05/27 00:18:47;;;;;;;;;;;;;;;27.70;39.24;94656.66;5040545;28;9364;-65
2023/05/27 00:21:52;;;;;;;;;;;;;;;27.69;38.99;94663.47;5041132;28;7301;-65
2023/05/27 00:24:39;;;;;;;;;;;;;;;27.69;39.52;94660.72;5013095;28;7117;-64
2023/05/27 00:27:22;;;;;;;;;;;;;;;27.66;38.85;94661.72;4990485;28;7042;-64
2023/05/27 00:29:51;;;;;;;;;;;;;;;27.68;38.67;94659.19;5007503;28;9083;-64
2023/05/27 00:32:17;;;;;;;;;;;;;;;27.66;39.23;94661.72;4973356;28;7111;-64
2023/05/27 00:34:45;;;;;;;;;;;;;;;27.62;38.72;94662.75;4986433;28;9026;-64
2023/05/27 00:37:13;;;;;;;;;;;;;;;27.62;39.06;94662.03;5005959;28;8145;-64
2023/05/27 00:39:49;;;;;;;;;;;;;;;27.64;38.83;94660.22;5014438;28;7410;-65
2023/05/27 00:42:30;;;;;;;;;;;;;;;27.62;38.93;94651.69;5015156;28;7227;-65
2023/05/27 00:45:05;;;;;;;;;;;;;;;27.63;38.58;94652.47;4999696;28;9494;-64
2023/05/27 00:47:34;;;;;;;;;;;;;;;27.63;38.73;94655.22;4996018;28;7640;-64
2023/05/27 00:50:04;;;;;;;;;;;;;;;27.61;38.72;94639.16;5006780;28;7071;-65
2023/05/27 00:52:31;;;;;;;;;;;;;;;27.60;38.92;94642.44;4992377;28;7186;-64
2023/05/27 00:55:26;;;;;;;;;;;;;;;27.61;38.74;94650.22;5009268;28;8647;-65
2023/05/27 00:58:04;;;;;;;;;;;;;;;27.60;39.04;94645.94;4950820;28;7460;-65
2023/05/27 01:00:45;;;;;;;;;;;;;;;27.60;39.01;94645.19;4992191;28;7293;-65
2023/05/27 01:03:15;;;;;;;;;;;;;;;27.59;38.70;94647.22;4969438;28;9886;-65
2023/05/27 01:05:41;;;;;;;;;;;;;;;27.60;38.90;94643.19;4975821;28;7280;-65
2023/05/27 01:08:28;;;;;;;;;;;;;;;27.63;38.61;94644.16;4976310;28;9164;-64
2023/05/27 01:11:12;;;;;;;;;;;;;;;27.63;38.73;94642.16;4993572;28;7266;-65
2023/05/27 01:13:49;;;;;;;;;;;;;;;27.64;38.84;94643.63;4973702;28;9378;-65
2023/05/27 01:16:20;;;;;;;;;;;;;;;27.62;38.52;94640.66;4979890;28;7070;-64
2023/05/27 01:18:52;;;;;;;;;;;;;;;27.67;38.54;94643.88;4976014;28;7104;-65
2023/05/27 01:21:30;;;;;;;;;;;;;;;27.68;38.66;94639.84;4992388;28;7856;-65
2023/05/27 01:24:03;;;;;;;;;;;;;;;27.68;38.48;94639.84;5006714;28;9026;-65
2023/05/27 01:26:29;;;;;;;;;;;;;;;27.68;38.59;94634.31;4975893;28;8724;-65
2023/05/27 01:28:59;;;;;;;;;;;;;;;27.66;37.74;94639.63;4975757;28;9532;-64
2023/05/27 01:31:55;;;;;;;;;;;;;;;27.66;38.27;94634.84;4994584;28;7430;-65
2023/05/27 01:34:33;;;;;;;;;;;;;;;27.64;37.81;94632.59;5020932;28;7034;-64
2023/05/27 01:37:08;;;;;;;;;;;;;;;27.66;38.31;94628.56;5071131;28;9130;-65
2023/05/27 01:39:37;;;;;;;;;;;;;;;27.66;38.04;94628.56;5057527;28;7019;-64
2023/05/27 01:42:22;;;;;;;;;;;;;;;27.65;38.46;94630.56;5078617;28;9007;-65
2023/05/27 01:44:53;;;;;;;;;;;;;;;27.64;38.50;94624.28;5039533;28;9107;-65
2023/05/27 01:47:26;;;;;;;;;;;;;;;27.63;38.39;94631.09;5056554;28;8524;-64
2023/05/27 01:50:04;;;;;;;;;;;;;;;27.61;38.16;94628.13;5049782;28;7046;-65
2023/05/27 01:52:50;;;;;;;;;;;;;;;27.61;38.36;94630.88;5044323;28;7463;-65
2023/05/27 01:55:17;;;;;;;;;;;;;;;27.62;38.43;94629.59;5071111;28;7032;-65
2023/05/27 01:58:12;;;;;;;;;;;;;;;27.63;38.54;94631.09;5037081;28;7063;-64
2023/05/27 02:00:47;;;;;;;;;;;;;;;27.61;37.86;94621.84;4978439;28;9138;-64
2023/05/27 02:03:17;;;;;;;;;;;;;;;27.62;38.31;94628.88;4975246;28;6956;-64
2023/05/27 02:05:45;;;;;;;;;;;;;;;27.61;38.00;94625.34;4965942;28;7043;-64
2023/05/27 02:08:37;;;;;;;;;;;;;;;27.60;38.34;94621.06;4978073;28;7044;-64
2023/05/27 02:11:29;;;;;;;;;;;;;;;27.60;38.29;94626.59;4976473;28;7600;-65
2023/05/27 02:14:29;;;;;;;;;;;;;;;27.59;38.38;94616.84;4992767;28;8998;-64
2023/05/27 02:17:07;;;;;;;;;;;;;;;27.59;38.33;94625.13;4994020;28;7024;-64
2023/05/27 02:19:38;;;;;;;;;;;;;;;27.57;38.64;94627.66;4976293;28;7285;-65
2023/05/27 02:22:13;;;;;;;;;;;;;;;27.54;38.27;94614.88;4960395;28;8725;-64
2023/05/27 02:25:16;;;;;;;;;;;;;;;27.57;38.40;94622.13;4983250;28;7267;-64
2023/05/27 02:27:52;;;;;;;;;;;;;;;27.57;38.54;94622.13;4918472;29;8666;-64
2023/05/27 02:30:27;;;;;;;;;;;;;;;27.55;38.51;94619.13;4921042;29;9163;-64
2023/05/27 02:33:00;;;;;;;;;;;;;;;27.55;38.17;94619.13;4932511;28;7289;-65
2023/05/27 02:35:27;;;;;;;;;;;;;;;27.53;37.98;94616.13;4933989;28;7109;-65
2023/05/27 02:37:55;;;;;;;;;;;;;;;27.53;38.19;94618.88;4967999;28;9052;-64
2023/05/27 02:40:29;;;;;;;;;;;;;;;27.54;38.20;94622.41;4977389;28;9096;-64
2023/05/27 02:42:56;;;;;;;;;;;;;;;27.52;38.53;94611.13;4973881;28;8981;-64
2023/05/27 02:45:23;;;;;;;;;;;;;;;27.51;38.04;94615.91;4973095;28;7662;-64
2023/05/27 02:48:01;;;;;;;;;;;;;;;27.51;38.15;94612.41;4974405;28;9098;-64
2023/05/27 02:50:40;;;;;;;;;;;;;;;27.53;38.02;94615.41;4987981;28;8210;-64
2023/05/27 02:53:16;;;;;;;;;;;;;;;27.54;38.26;94608.59;4991157;28;7077;-64
2023/05/27 02:56:08;;;;;;;;;;;;;;;27.52;38.36;94608.34;4975140;28;7294;-64
2023/05/27 02:58:34;;;;;;;;;;;;;;;27.49;37.97;94601.13;4948694;28;7127;-64
2023/05/27 03:01:22;;;;;;;;;;;;;;;27.50;38.06;94606.13;5009372;28;9480;-64
2023/05/27 03:04:16;;;;;;;;;;;;;;;27.48;38.20;94603.13;5066771;28;7172;-64
2023/05/27 03:06:48;;;;;;;;;;;;;;;27.47;38.23;94612.69;5071921;28;9035;-64
2023/05/27 03:09:20;;;;;;;;;;;;;;;27.45;38.14;94598.63;5071065;28;6949;-64
2023/05/27 03:11:47;;;;;;;;;;;;;;;27.44;38.27;94607.44;5068043;28;7079;-64
2023/05/27 03:14:21;;;;;;;;;;;;;;;27.44;37.86;94602.69;5044001;28;7042;-64
2023/05/27 03:16:53;;;;;;;;;;;;;;;27.45;38.01;94606.16;5054288;28;7243;-64
2023/05/27 03:19:35;;;;;;;;;;;;;;;27.44;38.01;94616.50;5070369;28;7026;-64
2023/05/27 03:22:11;;;;;;;;;;;;;;;27.45;38.39;94612.44;5070740;28;7142;-64
2023/05/27 03:24:37;;;;;;;;;;;;;;;27.45;38.02;94611.69;5064841;28;7705;-64
2023/05/27 03:27:03;;;;;;;;;;;;;;;27.40;38.23;94612.50;5069367;28;7075;-65
2023/05/27 03:29:30;;;;;;;;;;;;;;;27.42;38.08;94616.25;5068593;28;9102;-64
2023/05/27 03:31:59;;;;;;;;;;;;;;;27.39;38.11;94614.53;5054386;28;9127;-64
2023/05/27 03:34:25;;;;;;;;;;;;;;;27.43;37.95;94622.50;5050397;28;7218;-65
2023/05/27 03:36:51;;;;;;;;;;;;;;;27.39;37.90;94611.75;5061111;28;7250;-64
2023/05/27 03:39:17;;;;;;;;;;;;;;;27.41;37.95;94612.00;5054020;28;6983;-65
2023/05/27 03:41:44;;;;;;;;;;;;;;;27.41;38.28;94606.47;5054148;28;7436;-64
2023/05/27 03:44:12;;;;;;;;;;;;;;;27.35;38.14;94599.47;5060823;28;9014;-64
2023/05/27 03:46:38;;;;;;;;;;;;;;;27.40;38.04;94610.50;5052505;28;9308;-65
2023/05/27 03:49:05;;;;;;;;;;;;;;;27.37;38.18;94608.00;5055356;28;7004;-65
2023/05/27 03:51:32;;;;;;;;;;;;;;;27.38;37.66;94612.28;5049112;28;7027;-64
2023/05/27 03:54:00;;;;;;;;;;;;;;;27.38;37.97;94610.25;5078226;28;9113;-64
2023/05/27 03:56:26;;;;;;;;;;;;;;;27.35;38.14;94602.22;5056757;28;7125;-65
2023/05/27 03:58:53;;;;;;;;;;;;;;;27.38;38.07;94615.78;5068102;28;7267;-64
2023/05/27 04:01:23;;;;;;;;;;;;;;;27.36;38.05;94610.03;5051986;28;7291;-64
2023/05/27 04:03:50;;;;;;;;;;;;;;;27.37;38.03;94602.50;5048879;28;9086;-64
2023/05/27 04:06:15;;;;;;;;;;;;;;;27.36;37.91;94601.00;5069210;28;9171;-65
2023/05/27 04:08:42;;;;;;;;;;;;;;;27.35;38.20;94607.75;5064862;28;8728;-65
2023/05/27 04:11:16;;;;;;;;;;;;;;;27.34;37.78;94600.75;5048474;28;7107;-64
2023/05/27 04:13:44;;;;;;;;;;;;;;;27.36;38.23;94606.53;5065633;28;7116;-64
2023/05/27 04:16:13;;;;;;;;;;;;;;;27.34;37.92;94604.25;5042422;28;9621;-64
2023/05/27 04:18:39;;;;;;;;;;;;;;;27.34;37.87;94600.75;5038949;28;9503;-64
2023/05/27 04:21:08;;;;;;;;;;;;;;;27.33;38.15;94608.28;5048857;28;8179;-64
2023/05/27 04:23:40;;;;;;;;;;;;;;;27.33;37.77;94607.53;5066526;28;7219;-64
2023/05/27 04:26:12;;;;;;;;;;;;;;;27.33;38.03;94613.06;5041843;28;9177;-65
2023/05/27 04:28:40;;;;;;;;;;;;;;;27.29;37.50;94607.81;5050054;28;7563;-64
2023/05/27 04:31:12;;;;;;;;;;;;;;;27.31;37.99;94616.34;5052476;28;9538;-64
2023/05/27 04:33:46;;;;;;;;;;;;;;;27.29;37.59;94604.31;5052507;28;9117;-65
2023/05/27 04:36:16;;;;;;;;;;;;;;;27.30;38.01;94608.56;5068724;28;8745;-64
2023/05/27 04:38:52;;;;;;;;;;;;;;;27.25;38.08;94601.81;5066289;28;9466;-65
2023/05/27 04:41:28;;;;;;;;;;;;;;;27.31;37.68;94610.81;5052916;28;7195;-64
2023/05/27 04:43:56;;;;;;;;;;;;;;;27.31;37.96;94616.34;5057448;28;7000;-65
2023/05/27 04:46:45;;;;;;;;;;;;;;;27.29;38.02;94607.81;5033626;28;7046;-64
2023/05/27 04:49:23;;;;;;;;;;;;;;;27.29;37.56;94609.84;5037613;28;7040;-65
2023/05/27 04:51:54;;;;;;;;;;;;;;;27.28;37.98;94611.84;5034060;28;9000;-65
2023/05/27 04:54:21;;;;;;;;;;;;;;;27.27;38.02;94612.38;5045487;28;7245;-65
2023/05/27 04:56:57;;;;;;;;;;;;;;;27.27;37.70;94610.34;5058103;28;7328;-65
2023/05/27 04:59:45;;;;;;;;;;;;;;;27.28;37.49;94613.84;5065679;28;7029;-65
2023/05/27 05:02:34;;;;;;;;;;;;;;;27.26;37.89;94608.84;5076550;28;8523;-65
2023/05/27 05:05:05;;;;;;;;;;;;;;;27.25;38.00;94614.91;5059646;28;9002;-65
2023/05/27 05:07:43;;;;;;;;;;;;;;;27.19;38.34;94603.88;5056016;28;8250;-65
2023/05/27 05:10:40;;;;;;;;;;;;;;;27.25;38.22;94604.56;5038395;28;7302;-65
2023/05/27 05:13:11;;;;;;;;;;;;;;;27.26;37.82;94613.63;5069677;28;8978;-65
2023/05/27 05:15:37;;;;;;;;;;;;;;;27.23;38.44;94604.34;5055720;28;9486;-65
2023/05/27 05:18:16;;;;;;;;;;;;;;;27.25;37.73;94612.84;5051752;28;9532;-65
2023/05/27 05:20:42;;;;;;;;;;;;;;;27.25;38.15;94610.09;5077723;28;7368;-65
2023/05/27 05:23:16;;;;;;;;;;;;;;;27.26;38.17;94610.84;5068656;28;7260;-64
2023/05/27 05:25:54;;;;;;;;;;;;;;;27.25;38.59;94612.84;5035395;28;8992;-64
2023/05/27 05:28:20;;;;;;;;;;;;;;;27.24;38.46;94616.91;5043549;28;8760;-64
2023/05/27 05:30:58;;;;;;;;;;;;;;;27.25;38.33;94612.84;5057461;28;7002;-64
2023/05/27 05:33:36;;;;;;;;;;;;;;;27.23;38.88;94607.09;5053585;28;9125;-65
2023/05/27 05:36:38;;;;;;;;;;;;;;;27.24;38.41;94610.63;5068335;28;8728;-64
2023/05/27 05:39:06;;;;;;;;;;;;;;;27.21;38.21;94606.16;4965427;28;8668;-64
2023/05/27 05:41:42;;;;;;;;;;;;;;;27.21;38.37;94606.16;4950170;28;7088;-64
2023/05/27 05:44:09;;;;;;;;;;;;;;;27.22;38.25;94602.88;4956073;28;9713;-64
2023/05/27 05:46:54;;;;;;;;;;;;;;;27.22;38.59;94611.16;4955523;28;7053;-64
2023/05/27 05:49:33;;;;;;;;;;;;;;;27.23;38.30;94609.88;4950087;28;7334;-62
2023/05/27 05:52:01;;;;;;;;;;;;;;;27.26;38.57;94614.38;4955418;28;7351;-64
2023/05/27 05:54:36;;;;;;;;;;;;;;;27.24;39.39;94616.16;4971921;28;7137;-64
2023/05/27 05:57:05;;;;;;;;;;;;;;;27.24;39.43;94614.13;4952326;28;9756;-65
2023/05/27 05:59:41;;;;;;;;;;;;;;;27.20;39.03;94612.91;4969369;28;8615;-64
2023/05/27 06:02:33;;;;;;;;;;;;;;;27.25;39.18;94614.91;4971655;28;7133;-64
2023/05/27 06:05:02;;;;;;;;;;;;;;;27.23;39.14;94609.88;4974853;28;9072;-64
2023/05/27 06:07:37;;;;;;;;;;;;;;;27.24;39.16;94614.13;4987462;28;7026;-64
2023/05/27 06:10:05;;;;;;;;;;;;;;;27.23;39.39;94609.88;4989231;28;8475;-64
2023/05/27 06:12:42;;;;;;;;;;;;;;;27.29;39.52;94620.88;4993116;28;7828;-64
2023/05/27 06:15:17;;;;;;;;;;;;;;;27.28;39.48;94620.13;5048459;28;7230;-65
2023/05/27 06:17:53;;;;;;;;;;;;;;;27.28;39.44;94613.84;5044203;28;7045;-64
2023/05/27 06:20:29;;;;;;;;;;;;;;;27.28;40.13;94611.09;5049675;28;7555;-64
2023/05/27 06:23:05;;;;;;;;;;;;;;;27.24;40.21;94603.09;5046939;28;7360;-65
2023/05/27 06:25:32;;;;;;;;;;;;;;;27.30;40.07;94616.84;5046276;28;6859;-64
2023/05/27 06:28:04;;;;;;;;;;;;;;;27.31;40.20;94612.81;5045795;28;7132;-64
2023/05/27 06:30:32;;;;;;;;;;;;;;;27.32;40.05;94615.06;5050872;28;7083;-64
2023/05/27 06:33:00;;;;;;;;;;;;;;;27.29;40.00;94607.81;5060242;28;7255;-64
2023/05/27 06:35:33;;;;;;;;;;;;;;;27.30;39.75;94611.31;5061419;28;9253;-64
2023/05/27 06:38:17;;;;;;;;;;;;;;;27.31;40.14;94607.31;5046437;28;7256;-64
2023/05/27 06:40:53;;;;;;;;;;;;;;;27.32;39.85;94617.06;5049019;28;9117;-63
2023/05/27 06:43:27;;;;;;;;;;;;;;;27.29;39.66;94604.31;5051172;28;7293;-64
2023/05/27 06:46:28;;;;;;;;;;;;;;;27.32;39.93;94609.53;5050048;28;9421;-65
2023/05/27 06:49:03;;;;;;;;;;;;;;;27.31;40.18;94608.06;4934259;28;9132;-64
2023/05/27 06:51:39;;;;;;;;;;;;;;;27.32;40.09;94600.50;4950636;28;7055;-64
2023/05/27 06:54:07;;;;;;;;;;;;;;;27.33;39.77;94602.75;4940093;28;7087;-64
2023/05/27 06:56:35;;;;;;;;;;;;;;;27.33;39.81;94602.75;4950888;28;8999;-63
2023/05/27 06:59:01;;;;;;;;;;;;;;;27.35;39.86;94594.72;4939726;28;9355;-63
2023/05/27 07:01:27;;;;;;;;;;;;;;;27.34;39.47;94600.75;4950700;28;8082;-63
2023/05/27 07:04:25;;;;;;;;;;;;;;;27.31;39.67;94597.00;4957410;28;7270;-63
2023/05/27 07:07:06;;;;;;;;;;;;;;;27.29;40.42;94602.31;4860534;29;9183;-65
2023/05/27 07:09:45;;;;;;;;;;;;;;;27.30;40.50;94601.03;4870910;29;8618;-64
2023/05/27 07:12:20;;;;;;;;;;;;;;;27.31;40.40;94596.25;4855255;29;9401;-65
2023/05/27 07:14:55;;;;;;;;;;;;;;;27.24;40.34;94594.81;4877637;29;7029;-65
2023/05/27 07:17:25;;;;;;;;;;;;;;;27.25;40.30;94601.81;4872718;29;7108;-65
2023/05/27 07:20:00;;;;;;;;;;;;;;;27.27;39.84;94606.84;4872251;29;6985;-65
2023/05/27 07:22:26;;;;;;;;;;;;;;;27.27;40.45;94601.31;4856833;29;9185;-65
2023/05/27 07:25:29;;;;;;;;;;;;;;;27.26;40.12;94606.09;4932219;28;9423;-65
2023/05/27 07:28:16;;;;;;;;;;;;;;;27.27;39.97;94601.31;4898133;29;7731;-64
2023/05/27 07:30:54;;;;;;;;;;;;;;;27.23;40.17;94603.63;4882505;29;8710;-66
2023/05/27 07:33:41;;;;;;;;;;;;;;;27.25;40.04;94601.09;4896355;29;8959;-66
2023/05/27 07:36:19;;;;;;;;;;;;;;;27.26;40.20;94602.56;4880940;29;7706;-66
2023/05/27 07:38:58;;;;;;;;;;;;;;;27.25;39.67;94601.81;4882980;29;7269;-66
2023/05/27 07:41:26;;;;;;;;;;;;;;;27.25;39.97;94601.81;4884101;28;9333;-66
2023/05/27 07:44:02;;;;;;;;;;;;;;;27.26;39.74;94597.03;4955892;28;8787;-65
2023/05/27 07:46:30;;;;;;;;;;;;;;;27.24;40.01;94599.56;4948872;28;9092;-65
2023/05/27 07:49:24;;;;;;;;;;;;;;;27.24;40.15;94597.56;4955945;28;7010;-63
2023/05/27 07:51:59;;;;;;;;;;;;;;;27.25;40.24;94595.56;4953408;28;7215;-63
2023/05/27 07:54:26;;;;;;;;;;;;;;;27.24;40.57;94594.81;4947819;28;7047;-63
2023/05/27 07:57:06;;;;;;;;;;;;;;;27.24;40.38;94583.75;4955845;28;7216;-63
2023/05/27 07:59:37;;;;;;;;;;;;;;;27.25;40.76;94585.25;4952331;28;7040;-63
2023/05/27 08:02:25;;;;;;;;;;;;;;;27.28;40.18;94592.50;4991048;28;9582;-63
2023/05/27 08:04:51;;;;;;;;;;;;;;;27.28;40.43;94584.22;5048961;28;7022;-62
2023/05/27 08:07:21;;;;;;;;;;;;;;;27.29;40.58;94584.97;5046190;28;7248;-62
2023/05/27 08:10:07;;;;;;;;;;;;;;;27.27;40.49;94579.22;5033780;28;7034;-62
2023/05/27 08:12:42;;;;;;;;;;;;;;;27.29;40.66;94580.22;5021421;28;7142;-62
2023/05/27 08:15:11;;;;;;;;;;;;;;;27.32;40.31;94581.16;5046585;28;8732;-65
2023/05/27 08:17:37;;;;;;;;;;;;;;;27.29;40.67;94576.69;5025033;28;7214;-65
2023/05/27 08:20:04;;;;;;;;;;;;;;;27.27;40.79;94577.22;5044910;28;7319;-64
2023/05/27 08:22:32;;;;;;;;;;;;;;;27.30;40.56;94578.94;5029753;28;7287;-62
2023/05/27 08:25:01;;;;;;;;;;;;;;;27.30;40.51;94580.94;5030031;28;9386;-63
2023/05/27 08:27:46;;;;;;;;;;;;;;;27.29;40.71;94569.16;5029449;28;7158;-63
2023/05/27 08:30:14;;;;;;;;;;;;;;;27.30;40.83;94572.66;5048447;28;7032;-62
2023/05/27 08:33:04;;;;;;;;;;;;;;;27.33;41.01;94566.84;5043881;28;7363;-62
2023/05/27 08:35:36;;;;;;;;;;;;;;;27.34;41.16;94564.84;5024041;28;7858;-63
2023/05/27 08:38:06;;;;;;;;;;;;;;;27.35;41.28;94572.63;5025227;28;7030;-63
2023/05/27 08:40:32;;;;;;;;;;;;;;;27.38;40.80;94571.56;5047552;28;7222;-63
2023/05/27 08:43:02;;;;;;;;;;;;;;;27.38;40.98;94562.56;5025394;28;7045;-62
2023/05/27 08:45:28;;;;;;;;;;;;;;;27.39;40.84;94566.81;5027127;28;7105;-63
2023/05/27 08:47:57;;;;;;;;;;;;;;;27.40;40.99;94560.03;5042394;28;7218;-62
2023/05/27 08:50:23;;;;;;;;;;;;;;;27.41;41.00;94559.50;5029978;28;9153;-63
2023/05/27 08:52:53;;;;;;;;;;;;;;;27.42;40.92;94555.50;5041155;28;7305;-62
2023/05/27 08:55:21;;;;;;;;;;;;;;;27.41;41.03;94558.75;5047567;28;7032;-62
2023/05/27 08:57:55;;;;;;;;;;;;;;;27.43;41.13;94556.97;5030376;28;7004;-62
2023/05/27 09:00:26;;;;;;;;;;;;;;;27.43;40.99;94547.94;5046176;28;7048;-62
2023/05/27 09:03:29;;;;;;;;;;;;;;;27.42;40.84;94555.50;5033185;28;9476;-64
2023/05/27 09:05:55;;;;;;;;;;;;;;;27.42;41.03;94561.00;4945881;28;7258;-64
2023/05/27 09:08:21;;;;;;;;;;;;;;;27.42;41.04;94549.97;4968157;28;8698;-63
2023/05/27 09:11:26;;;;;;;;;;;;;;;27.42;41.41;94549.97;4953633;28;7127;-63
2023/05/27 09:13:55;;;;;;;;;;;;;;;27.44;41.09;94552.19;4947724;28;9387;-63
2023/05/27 09:16:48;;;;;;;;;;;;;;;27.40;41.27;94552.50;4947929;28;9431;-62
2023/05/27 09:19:41;;;;;;;;;;;;;;;27.41;41.14;94553.97;4932946;29;8680;-62
2023/05/27 09:22:31;;;;;;;;;;;;;;;27.40;41.39;94546.97;4949720;28;7239;-63
2023/05/27 09:25:28;;;;;;;;;;;;;;;27.44;41.46;94552.94;4936026;29;7138;-63
2023/05/27 09:28:04;;;;;;;;;;;;;;;27.42;41.38;94544.44;4885901;29;7254;-63
2023/05/27 09:30:32;;;;;;;;;;;;;;;27.45;40.95;94548.91;4890663;29;7038;-63
2023/05/27 09:33:07;;;;;;;;;;;;;;;27.48;40.88;94550.66;4891659;29;7043;-64
2023/05/27 09:35:39;;;;;;;;;;;;;;;27.46;41.28;94539.38;4892226;29;7139;-63
2023/05/27 09:38:35;;;;;;;;;;;;;;;27.47;41.01;94534.59;4899643;29;7127;-63
2023/05/27 09:41:25;;;;;;;;;;;;;;;27.48;40.68;94547.88;4902425;29;7252;-63
2023/05/27 09:44:04;;;;;;;;;;;;;;;27.48;40.89;94538.84;4909874;29;9019;-63
2023/05/27 09:46:32;;;;;;;;;;;;;;;27.50;40.87;94545.34;4912159;29;9056;-63
2023/05/27 09:49:05;;;;;;;;;;;;;;;27.49;41.10;94532.78;4906578;29;8001;-64
2023/05/27 09:52:01;;;;;;;;;;;;;;;27.54;40.90;94537.50;4913884;29;9079;-63
2023/05/27 09:54:43;;;;;;;;;;;;;;;27.55;40.71;94525.19;4918998;29;7927;-63
2023/05/27 09:57:10;;;;;;;;;;;;;;;27.55;40.38;94539.00;4918730;29;7512;-63
2023/05/27 10:00:14;;;;;;;;;;;;;;;27.56;40.80;94526.69;4920022;29;7217;-63
2023/05/27 10:02:46;;;;;;;;;;;;;;;27.56;40.92;94526.69;4897532;29;9484;-63
2023/05/27 10:05:15;;;;;;;;;;;;;;;27.56;40.66;94520.41;4915689;28;7066;-63
2023/05/27 10:07:55;;;;;;;;;;;;;;;27.59;40.61;94513.84;4932260;29;9032;-63
2023/05/27 10:10:43;;;;;;;;;;;;;;;27.59;40.93;94517.34;4917769;29;7188;-62
2023/05/27 10:13:13;;;;;;;;;;;;;;;27.56;40.97;94517.63;4917473;29;7037;-63
2023/05/27 10:15:52;;;;;;;;;;;;;;;27.62;40.65;94518.34;4917269;29;7108;-62
2023/05/27 10:18:47;;;;;;;;;;;;;;;27.59;40.64;94511.09;4962777;28;7257;-62
2023/05/27 10:21:41;;;;;;;;;;;;;;;27.62;40.98;94519.06;4983120;28;7912;-62
2023/05/27 10:24:32;;;;;;;;;;;;;;;27.62;41.27;94516.31;4994731;28;9200;-63
2023/05/27 10:27:10;;;;;;;;;;;;;;;27.63;40.99;94514.28;4978483;28;6860;-62
2023/05/27 10:29:59;;;;;;;;;;;;;;;27.64;40.89;94511.00;4988939;28;7034;-62
2023/05/27 10:32:54;;;;;;;;;;;;;;;27.66;41.35;94506.97;4995148;28;7157;-63
2023/05/27 10:35:58;;;;;;;;;;;;;;;27.67;41.12;94511.22;5006808;28;9015;-63
2023/05/27 10:38:36;;;;;;;;;;;;;;;27.67;41.68;94503.69;4988140;28;7269;-63
2023/05/27 10:41:49;;;;;;;;;;;;;;;27.69;41.19;94497.66;5012606;28;7053;-63
2023/05/27 10:44:32;;;;;;;;;;;;;;;27.72;41.09;94504.88;5026750;28;9029;-63
2023/05/27 10:47:29;;;;;;;;;;;;;;;27.72;41.04;94504.88;5009388;28;7032;-63
2023/05/27 10:49:57;;;;;;;;;;;;;;;27.71;41.04;94500.66;4974529;28;7071;-63
2023/05/27 10:52:26;;;;;;;;;;;;;;;27.74;41.19;94496.81;4952854;28;7050;-63
2023/05/27 10:55:24;;;;;;;;;;;;;;;27.74;40.94;94502.34;4966812;28;7572;-63
2023/05/27 10:58:01;;;;;;;;;;;;;;;27.76;40.95;94506.09;4900652;29;7266;-63
2023/05/27 11:00:51;;;;;;;;;;;;;;;27.77;41.25;94504.81;4894443;29;9574;-62
2023/05/27 11:03:28;;;;;;;;;;;;;;;27.76;40.78;94505.34;4893242;29;7286;-62
2023/05/27 11:06:05;;;;;;;;;;;;;;;27.77;40.79;94496.53;4903277;29;7673;-63
2023/05/27 11:08:39;;;;;;;;;;;;;;;27.77;40.43;94490.25;4930686;29;7070;-63
2023/05/27 11:11:15;;;;;;;;;;;;;;;27.78;40.39;94486.97;4930948;29;7042;-63
2023/05/27 11:14:00;;;;;;;;;;;;;;;27.79;40.57;94485.69;4918264;29;7124;-63
2023/05/27 11:16:28;;;;;;;;;;;;;;;27.80;40.79;94480.91;4932582;29;8854;-63
2023/05/27 11:18:54;;;;;;;;;;;;;;;27.81;41.13;94482.41;4934035;29;6984;-63
2023/05/27 11:21:22;;;;;;;;;;;;;;;27.82;40.97;94483.91;4918019;29;9428;-63
2023/05/27 11:24:15;;;;;;;;;;;;;;;27.82;40.73;94472.84;4933702;29;8500;-63
2023/05/27 11:26:51;;;;;;;;;;;;;;;27.83;40.50;94472.31;4951144;28;7274;-63
2023/05/27 11:29:27;;;;;;;;;;;;;;;27.84;41.11;94468.28;4992324;28;7260;-63
2023/05/27 11:32:29;;;;;;;;;;;;;;;27.84;40.44;94479.34;4991446;28;9001;-63
2023/05/27 11:35:31;;;;;;;;;;;;;;;27.85;40.58;94457.97;4976488;28;9094;-63
2023/05/27 11:38:18;;;;;;;;;;;;;;;27.85;41.07;94453.19;4962090;28;7129;-63
2023/05/27 11:40:45;;;;;;;;;;;;;;;27.85;39.84;94460.75;4965486;28;7184;-63
2023/05/27 11:43:55;;;;;;;;;;;;;;;27.86;40.70;94460.19;4964427;28;7133;-64
2023/05/27 11:46:42;;;;;;;;;;;;;;;27.88;40.71;94457.69;4953073;28;7133;-64
2023/05/27 11:49:46;;;;;;;;;;;;;;;27.88;40.63;94452.16;4971438;28;9103;-63
2023/05/27 11:52:26;;;;;;;;;;;;;;;27.85;40.78;94444.91;4970778;28;7343;-64
2023/05/27 11:55:14;;;;;;;;;;;;;;;27.89;40.93;94452.88;4973513;28;7027;-64
2023/05/27 11:58:11;;;;;;;;;;;;;;;27.91;40.55;94444.81;4956040;28;7032;-63
2023/05/27 12:00:37;;;;;;;;;;;;;;;27.90;40.53;94443.34;4954829;28;8425;-64
2023/05/27 12:03:03;;;;;;;;;;;;;;;27.93;40.99;94440.25;4949294;28;7237;-64
2023/05/27 12:05:31;;;;;;;;;;;;;;;27.93;40.66;94437.50;4964157;28;8205;-63
2023/05/27 12:08:22;;;;;;;;;;;;;;;27.94;40.98;94438.25;4957398;28;7125;-63
2023/05/27 12:10:53;;;;;;;;;;;;;;;27.97;40.85;94431.66;4968404;28;7064;-63
2023/05/27 12:13:39;;;;;;;;;;;;;;;28.00;40.84;94436.16;4951519;28;8421;-63
2023/05/27 12:16:21;;;;;;;;;;;;;;;27.99;41.04;94429.16;4957789;28;8773;-64
2023/05/27 12:19:18;;;;;;;;;;;;;;;28.02;40.59;94433.63;4972376;28;9026;-64
2023/05/27 12:22:08;;;;;;;;;;;;;;;28.02;40.66;94428.09;4970189;28;8394;-64
2023/05/27 12:25:02;;;;;;;;;;;;;;;28.02;40.55;94422.56;4981571;28;9253;-64
2023/05/27 12:27:37;;;;;;;;;;;;;;;28.03;40.63;94418.53;4955899;28;9178;-64
2023/05/27 12:30:19;;;;;;;;;;;;;;;28.03;40.94;94418.53;4973471;28;9510;-64
2023/05/27 12:32:55;;;;;;;;;;;;;;;28.03;41.21;94418.53;4973277;28;9287;-64
2023/05/27 12:35:41;;;;;;;;;;;;;;;28.05;40.58;94410.47;4957644;28;9112;-64
2023/05/27 12:38:23;;;;;;;;;;;;;;;28.06;40.60;94406.41;5030871;28;7095;-63
2023/05/27 12:40:57;;;;;;;;;;;;;;;28.05;41.00;94405.69;5068688;28;7010;-64
2023/05/27 12:43:24;;;;;;;;;;;;;;;28.06;40.80;94406.41;5052165;28;9177;-63
2023/05/27 12:45:56;;;;;;;;;;;;;;;28.04;40.83;94398.66;5059529;28;9049;-64
2023/05/27 12:48:22;;;;;;;;;;;;;;;28.07;40.79;94394.84;5050214;28;7058;-64
2023/05/27 12:51:01;;;;;;;;;;;;;;;28.08;41.19;94398.31;5058310;28;7217;-63
2023/05/27 12:53:33;;;;;;;;;;;;;;;28.08;40.56;94399.06;5068692;28;7031;-63
2023/05/27 12:56:01;;;;;;;;;;;;;;;28.09;41.09;94394.31;5053463;28;9053;-63
2023/05/27 12:58:47;;;;;;;;;;;;;;;28.12;41.04;94396.03;5049676;28;6984;-63
2023/05/27 13:01:13;;;;;;;;;;;;;;;28.14;41.46;94396.25;5042065;28;8519;-64
2023/05/27 13:03:55;;;;;;;;;;;;;;;28.09;41.03;94388.78;5043648;28;7057;-63
2023/05/27 13:06:21;;;;;;;;;;;;;;;28.13;41.08;94389.19;5059880;28;7499;-64
2023/05/27 13:08:47;;;;;;;;;;;;;;;28.13;40.96;94383.66;5064173;28;7635;-63
2023/05/27 13:11:13;;;;;;;;;;;;;;;28.13;41.18;94394.72;5049786;28;7120;-63
2023/05/27 13:13:43;;;;;;;;;;;;;;;28.13;41.48;94378.13;5064553;28;9600;-64
2023/05/27 13:16:09;;;;;;;;;;;;;;;28.16;41.54;94388.16;5039589;28;8168;-63
2023/05/27 13:18:46;;;;;;;;;;;;;;;28.18;41.42;94385.59;5051466;28;10228;-64
2023/05/27 13:21:19;;;;;;;;;;;;;;;28.21;41.26;94379.00;5049538;28;7331;-64
2023/05/27 13:23:54;;;;;;;;;;;;;;;28.22;41.03;94374.97;5067924;28;7031;-64
2023/05/27 13:26:22;;;;;;;;;;;;;;;28.25;41.33;94379.47;5051927;28;9294;-63
2023/05/27 13:28:48;;;;;;;;;;;;;;;28.27;41.06;94377.63;5054157;28;7326;-64
2023/05/27 13:31:15;;;;;;;;;;;;;;;28.29;41.47;94375.13;5052908;28;7162;-63
2023/05/27 13:33:41;;;;;;;;;;;;;;;28.29;41.47;94366.06;5060921;28;7102;-64
2023/05/27 13:36:35;;;;;;;;;;;;;;;28.31;41.55;94363.50;5066417;28;7283;-64
2023/05/27 13:39:16;;;;;;;;;;;;;;;28.33;41.72;94372.03;4936173;29;8221;-63
2023/05/27 13:42:13;;;;;;;;;;;;;;;28.31;41.23;94363.50;4938115;29;7452;-63
2023/05/27 13:44:51;;;;;;;;;;;;;;;28.30;41.36;94360.00;4923593;28;7042;-63
2023/05/27 13:47:21;;;;;;;;;;;;;;;28.33;41.47;94360.97;4931735;28;7302;-63